Time;durP1;ratioP1;P1;durP2;ratioP2;P2;SDS_P1;SDS_P2;PMS_P1;PMS_P2;Temp;Humidity;BMP_temperature;BMP_pressure;BME280_temperature;BME280_humidity;BME280_pressure;Samples;Min_cycle;Max_cycle;Signal;HPM_P1;HPM_P2
2022/10/12 00:01:13;;;;;;;30.50;16.90;;;;;;;5.92;68.52;99954.16;103065;1296;97949;-76
2022/10/12 00:03:41;;;;;;;33.00;16.70;;;;;;;5.88;68.40;99951.16;103118;1304;95826;-74
2022/10/12 00:06:14;;;;;;;28.50;16.30;;;;;;;5.85;68.64;99952.36;103106;1299;111294;-75
2022/10/12 00:08:44;;;;;;;30.90;16.90;;;;;;;5.83;68.47;99952.27;103144;1301;97876;-75
2022/10/12 00:11:26;;;;;;;30.50;16.60;;;;;;;5.79;68.35;99954.33;103119;1309;107939;-76
2022/10/12 00:13:56;;;;;;;29.60;15.40;;;;;;;5.74;68.44;99952.38;103102;1303;98096;-76
2022/10/12 00:16:30;;;;;;;28.70;16.10;;;;;;;5.70;68.41;99956.07;103068;1286;95245;-74
2022/10/12 00:18:58;;;;;;;29.90;16.40;;;;;;;5.66;68.41;99956.42;103132;1306;111227;-76
2022/10/12 00:21:28;;;;;;;34.90;19.50;;;;;;;5.62;68.49;99957.06;103066;1304;97603;-76
2022/10/12 00:23:59;;;;;;;30.70;17.10;;;;;;;5.61;68.55;99954.68;102933;1299;108636;-76
2022/10/12 00:26:29;;;;;;;32.70;17.30;;;;;;;5.58;68.66;99952.33;103113;1303;97978;-75
2022/10/12 00:29:01;;;;;;;33.10;17.40;;;;;;;5.56;68.67;99956.80;103149;1297;97900;-75
2022/10/12 00:31:32;;;;;;;31.60;17.70;;;;;;;5.53;68.65;99956.35;103086;1296;110786;-75
2022/10/12 00:34:03;;;;;;;32.40;17.40;;;;;;;5.49;68.72;99959.88;103061;1302;97903;-74
2022/10/12 00:36:35;;;;;;;31.40;19.00;;;;;;;5.46;68.76;99955.02;103090;1302;107425;-74
2022/10/12 00:39:07;;;;;;;31.70;17.70;;;;;;;5.45;68.77;99950.86;103086;1304;97933;-75
2022/10/12 00:41:42;;;;;;;29.50;17.80;;;;;;;5.42;68.61;99949.39;103060;1304;98021;-74
2022/10/12 00:44:41;;;;;;;30.00;18.70;;;;;;;5.38;68.57;99952.37;103155;1304;110766;-75
2022/10/12 00:47:37;;;;;;;30.00;18.20;;;;;;;5.33;68.73;99952.00;103136;1304;98544;-75
2022/10/12 00:50:27;;;;;;;35.80;17.80;;;;;;;5.31;68.84;99954.01;103111;1305;107316;-75
2022/10/12 00:53:14;;;;;;;30.10;17.70;;;;;;;5.27;68.80;99954.88;103099;1305;97983;-76
2022/10/12 00:56:12;;;;;;;37.70;20.80;;;;;;;5.23;68.84;99953.09;103129;1297;97891;-76
2022/10/12 00:58:40;;;;;;;40.90;23.60;;;;;;;5.19;69.29;99948.62;103097;1302;110795;-75
2022/10/12 01:01:09;;;;;;;35.10;19.40;;;;;;;5.20;69.12;99952.82;103095;1302;95902;-76
2022/10/12 01:03:39;;;;;;;31.70;18.60;;;;;;;5.17;69.02;99951.86;103014;1306;105909;-76
2022/10/12 01:06:07;;;;;;;33.90;18.60;;;;;;;5.15;68.93;99953.19;103054;1303;97979;-76
2022/10/12 01:08:36;;;;;;;31.70;18.30;;;;;;;5.13;68.98;99956.77;103104;1303;97997;-75
2022/10/12 01:11:04;;;;;;;30.30;17.90;;;;;;;5.11;68.89;99953.86;103094;1299;111157;-75
2022/10/12 01:13:32;;;;;;;31.70;17.50;;;;;;;5.08;68.89;99948.88;103091;1310;97975;-76
2022/10/12 01:16:18;;;;;;;34.10;18.30;;;;;;;5.05;68.95;99948.63;103137;1303;106964;-76
2022/10/12 01:19:16;;;;;;;31.90;17.60;;;;;;;5.01;68.99;99948.92;103099;1296;97956;-75
2022/10/12 01:21:59;;;;;;;30.40;16.80;;;;;;;4.97;68.96;99948.73;103051;1298;95812;-75
2022/10/12 01:24:59;;;;;;;32.40;17.30;;;;;;;4.92;68.88;99949.07;103128;1301;111127;-75
2022/10/12 01:27:39;;;;;;;30.60;17.60;;;;;;;4.87;69.00;99946.08;103115;1302;98506;-74
2022/10/12 01:30:15;;;;;;;30.10;18.50;;;;;;;4.84;69.03;99950.93;102996;1296;107462;-74
2022/10/12 01:32:52;;;;;;;27.80;16.50;;;;;;;4.83;69.01;99948.84;103069;1303;96491;-74
2022/10/12 01:35:49;;;;;;;32.30;18.60;;;;;;;4.82;69.01;99948.54;103095;1304;97007;-75
2022/10/12 01:38:32;;;;;;;39.40;23.00;;;;;;;4.78;68.85;99953.08;103110;1304;111154;-75
2022/10/12 01:41:13;;;;;;;33.50;21.10;;;;;;;4.72;69.16;99952.73;103128;1307;95235;-75
2022/10/12 01:43:45;;;;;;;39.80;20.60;;;;;;;4.70;69.07;99955.45;103124;1303;107560;-75
2022/10/12 01:46:16;;;;;;;36.80;20.70;;;;;;;4.66;69.12;99959.63;103108;1304;97977;-75
2022/10/12 01:48:47;;;;;;;35.10;20.40;;;;;;;4.63;69.09;99962.70;103078;1302;96339;-76
2022/10/12 01:51:27;;;;;;;32.90;19.40;;;;;;;4.62;69.19;99968.02;103137;1303;110726;-76
2022/10/12 01:54:08;;;;;;;34.40;20.30;;;;;;;4.60;69.12;99968.42;103181;1299;97966;-77
2022/10/12 01:57:01;;;;;;;33.10;19.30;;;;;;;4.57;69.19;99968.90;103103;1296;107329;-76
2022/10/12 01:59:54;;;;;;;32.70;19.50;;;;;;;4.53;69.18;99967.08;103051;1303;98005;-76
2022/10/12 02:02:25;;;;;;;35.60;19.50;;;;;;;4.51;69.23;99966.27;103002;1303;97986;-76
2022/10/12 02:05:17;;;;;;;30.90;19.10;;;;;;;4.50;69.30;99969.46;103161;1296;111276;-75
2022/10/12 02:07:53;;;;;;;32.90;19.60;;;;;;;4.50;69.23;99972.46;103135;1305;97938;-75
2022/10/12 02:10:27;;;;;;;39.30;22.70;;;;;;;4.48;69.37;99968.98;103121;1298;107478;-76
2022/10/12 02:12:59;;;;;;;34.90;21.70;;;;;;;4.48;69.48;99968.13;103065;1305;97989;-75
2022/10/12 02:15:30;;;;;;;33.30;19.30;;;;;;;4.48;69.48;99968.30;102954;1301;98011;-75
2022/10/12 02:18:04;;;;;;;34.70;21.20;;;;;;;4.48;69.37;99967.61;103137;1300;111075;-74
2022/10/12 02:20:38;;;;;;;;;;;;;;;4.46;69.33;99971.34;103145;1303;95159;-75
2022/10/12 02:23:09;;;;;;;34.90;19.80;;;;;;;4.43;69.45;99969.70;103138;1301;107276;-76
2022/10/12 02:25:39;;;;;;;31.10;17.60;;;;;;;4.42;69.48;99973.60;103107;1303;97887;-77
2022/10/12 02:28:13;;;;;;;33.30;19.90;;;;;;;4.41;69.38;99974.31;103166;1287;98009;-76
2022/10/12 02:31:00;;;;;;;30.60;19.20;;;;;;;4.40;69.37;99975.42;103111;1303;110929;-75
2022/10/12 02:33:42;;;;;;;33.60;19.80;;;;;;;4.37;69.41;99976.73;103077;1296;97761;-74
2022/10/12 02:36:16;;;;;;;34.00;21.50;;;;;;;4.34;69.35;99973.66;103011;1296;107839;-75
2022/10/12 02:39:02;;;;;;;33.40;20.80;;;;;;;4.31;69.40;99974.80;103094;1306;98008;-74
2022/10/12 02:41:40;;;;;;;34.40;19.20;;;;;;;4.29;69.57;99977.16;103139;1303;98026;-76
2022/10/12 02:44:16;;;;;;;34.70;20.00;;;;;;;4.26;69.39;99977.27;103127;1296;111979;-75
2022/10/12 02:46:47;;;;;;;34.80;20.20;;;;;;;4.23;69.39;99976.14;103124;1304;95836;-76
2022/10/12 02:49:17;;;;;;;35.60;22.00;;;;;;;4.20;69.48;99978.16;103099;1302;107389;-77
2022/10/12 02:51:47;;;;;;;38.60;21.50;;;;;;;4.15;69.43;99974.45;102953;1299;98306;-76
2022/10/12 02:54:15;;;;;;;39.50;21.80;;;;;;;4.12;69.40;99977.69;103094;1298;97917;-78
2022/10/12 02:56:45;;;;;;;39.40;23.00;;;;;;;4.09;69.43;99975.36;103067;1304;111117;-77
2022/10/12 02:59:17;;;;;;;34.10;21.40;;;;;;;4.01;69.53;99978.92;103094;1303;97858;-78
2022/10/12 03:01:45;;;;;;;33.40;20.80;;;;;;;3.88;69.67;99984.59;103015;1304;107521;-76
2022/10/12 03:04:14;;;;;;;31.70;19.80;;;;;;;3.76;69.53;99981.79;103081;1304;97780;-76
2022/10/12 03:06:42;;;;;;;31.90;19.90;;;;;;;3.71;69.59;99978.23;103163;1304;97868;-75
2022/10/12 03:09:13;;;;;;;35.40;22.20;;;;;;;3.71;69.74;99979.98;103148;1296;111303;-74
2022/10/12 03:11:43;;;;;;;32.80;20.10;;;;;;;3.71;69.67;99979.64;103097;1290;97846;-75
2022/10/12 03:14:15;;;;;;;32.70;20.00;;;;;;;3.72;69.80;99979.09;103129;1304;108771;-76
2022/10/12 03:16:45;;;;;;;33.50;19.20;;;;;;;3.72;69.82;99980.31;103121;1303;98025;-74
2022/10/12 03:19:14;;;;;;;32.40;19.40;;;;;;;3.72;69.73;99975.59;103157;1303;98439;-75
2022/10/12 03:21:41;;;;;;;31.50;18.40;;;;;;;3.70;69.59;99979.52;103152;1296;111161;-75
2022/10/12 03:24:09;;;;;;;30.80;18.30;;;;;;;3.67;69.72;99979.92;103180;1303;98916;-75
2022/10/12 03:26:37;;;;;;;34.40;19.10;;;;;;;3.66;69.65;99985.08;103123;1296;107640;-77
2022/10/12 03:29:05;;;;;;;33.90;19.40;;;;;;;3.65;69.96;99981.41;103150;1299;95116;-76
2022/10/12 03:31:32;;;;;;;32.50;18.40;;;;;;;3.65;69.75;99979.31;103169;1296;97900;-74
2022/10/12 03:34:00;;;;;;;32.70;18.80;;;;;;;3.63;69.86;99977.25;103144;1304;110863;-75
2022/10/12 03:36:29;;;;;;;35.90;18.70;;;;;;;3.60;69.67;99980.50;103138;1298;97926;-74
2022/10/12 03:38:58;;;;;;;32.80;20.50;;;;;;;3.56;69.56;99982.35;102974;1304;107584;-75
2022/10/12 03:41:26;;;;;;;31.60;17.40;;;;;;;3.55;70.01;99981.68;103120;1298;97780;-78
2022/10/12 03:43:54;;;;;;;31.20;18.30;;;;;;;3.56;70.09;99982.71;103154;1304;98026;-76
2022/10/12 03:46:21;;;;;;;32.90;18.50;;;;;;;3.56;69.93;99983.58;103137;1306;110976;-74
2022/10/12 03:48:49;;;;;;;30.60;17.80;;;;;;;3.56;70.00;99986.59;103122;1304;98414;-74
2022/10/12 03:51:17;;;;;;;33.00;17.20;;;;;;;3.56;69.96;99987.98;103075;1304;107539;-77
2022/10/12 03:53:44;;;;;;;33.10;18.50;;;;;;;3.55;69.92;99986.42;102994;1303;99002;-77
2022/10/12 03:56:12;;;;;;;31.10;17.10;;;;;;;3.53;69.85;99984.73;103076;1304;97889;-75
2022/10/12 03:58:40;;;;;;;31.30;18.80;;;;;;;3.50;69.78;99983.23;103034;1304;111426;-76
2022/10/12 04:01:07;;;;;;;30.60;18.90;;;;;;;3.46;69.79;99984.56;103044;1298;97910;-75
2022/10/12 04:03:35;;;;;;;29.30;17.60;;;;;;;3.41;69.66;99986.30;103029;1304;106641;-76
2022/10/12 04:06:03;;;;;;;33.20;18.70;;;;;;;3.38;70.10;99988.84;103118;1298;97872;-75
2022/10/12 04:08:31;;;;;;;31.90;18.60;;;;;;;3.37;70.22;99986.27;103077;1296;96547;-74
2022/10/12 04:10:59;;;;;;;32.70;19.10;;;;;;;3.36;69.93;99988.53;103134;1300;111150;-75
2022/10/12 04:13:26;;;;;;;32.50;18.00;;;;;;;3.35;69.83;99989.63;103104;1311;97880;-74
2022/10/12 04:15:54;;;;;;;32.20;19.00;;;;;;;3.31;70.02;99988.86;103099;1298;106563;-74
2022/10/12 04:18:22;;;;;;;30.70;18.30;;;;;;;3.28;69.96;99990.69;103054;1304;97885;-73
2022/10/12 04:20:49;;;;;;;36.00;18.30;;;;;;;3.27;69.97;99987.39;103061;1304;95195;-74
2022/10/12 04:23:17;;;;;;;27.80;17.00;;;;;;;3.25;69.82;99992.17;103057;1296;111121;-75
2022/10/12 04:25:45;;;;;;;28.20;17.20;;;;;;;3.24;70.04;99996.77;103063;1296;97883;-75
2022/10/12 04:28:13;;;;;;;30.60;18.00;;;;;;;3.24;70.11;99996.24;103059;1303;107497;-74
2022/10/12 04:30:41;;;;;;;33.30;17.70;;;;;;;3.25;70.06;99995.51;102881;1301;98687;-75
2022/10/12 04:33:09;;;;;;;29.20;17.60;;;;;;;3.25;70.05;100001.29;103033;1297;96009;-75
2022/10/12 04:35:37;;;;;;;31.30;17.90;;;;;;;3.22;70.17;100000.33;103120;1302;111108;-77
2022/10/12 04:38:06;;;;;;;30.60;15.50;;;;;;;3.16;70.12;99999.42;103015;1304;97861;-75
2022/10/12 04:40:33;;;;;;;27.10;15.90;;;;;;;3.14;70.23;100002.13;103061;1298;107432;-74
2022/10/12 04:43:01;;;;;;;32.80;17.60;;;;;;;3.14;70.31;100004.04;102616;1297;690152;-74
2022/10/12 04:45:29;;;;;;;29.30;16.60;;;;;;;3.13;69.97;100007.91;102971;1304;97997;-76
2022/10/12 04:47:58;;;;;;;29.60;16.20;;;;;;;3.12;69.98;100010.59;103118;1303;111150;-75
2022/10/12 04:50:26;;;;;;;28.00;16.80;;;;;;;3.11;70.24;100010.42;103117;1303;98708;-75
2022/10/12 04:52:58;;;;;;;28.10;16.20;;;;;;;3.12;70.17;100012.34;103088;1304;107452;-74
2022/10/12 04:55:26;;;;;;;28.60;17.20;;;;;;;3.13;70.10;100014.23;103056;1306;97826;-74
2022/10/12 04:57:54;;;;;;;33.50;18.30;;;;;;;3.13;70.20;100013.71;103085;1304;97923;-75
2022/10/12 05:00:21;;;;;;;31.70;17.80;;;;;;;3.13;70.32;100016.52;103074;1303;112126;-75
2022/10/12 05:02:49;;;;;;;29.30;17.80;;;;;;;3.13;70.24;100013.34;103129;1304;97890;-74
2022/10/12 05:05:17;;;;;;;29.70;17.70;;;;;;;3.14;70.36;100017.73;103129;1299;107153;-74
2022/10/12 05:07:45;;;;;;;32.40;17.70;;;;;;;3.14;70.23;100016.32;103096;1298;98010;-74
2022/10/12 05:10:13;;;;;;;32.50;18.40;;;;;;;3.16;70.10;100016.98;103124;1303;98064;-75
2022/10/12 05:12:42;;;;;;;32.20;17.40;;;;;;;3.18;70.27;100017.79;103078;1296;111209;-75
2022/10/12 05:15:11;;;;;;;33.10;17.90;;;;;;;3.19;70.43;100016.18;103108;1303;96377;-75
2022/10/12 05:17:38;;;;;;;32.30;16.60;;;;;;;3.21;70.36;100017.89;103098;1302;107592;-75
2022/10/12 05:20:09;;;;;;;27.50;15.60;;;;;;;3.24;70.49;100019.02;103064;1303;95967;-74
2022/10/12 05:22:38;;;;;;;26.70;15.70;;;;;;;3.24;70.87;100016.90;103140;1305;97896;-75
2022/10/12 05:25:07;;;;;;;29.80;17.50;;;;;;;3.31;70.57;100026.02;103127;1296;110704;-74
2022/10/12 05:27:35;;;;;;;34.30;17.20;;;;;;;3.35;70.83;100024.69;103131;1302;98006;-75
2022/10/12 05:30:06;;;;;;;29.40;15.70;;;;;;;3.38;70.68;100022.49;103141;1303;106615;-74
2022/10/12 05:32:34;;;;;;;27.60;15.20;;;;;;;3.42;70.76;100025.39;103096;1306;97889;-74
2022/10/12 05:35:02;;;;;;;27.30;15.70;;;;;;;3.45;70.58;100029.33;103107;1296;97874;-74
2022/10/12 05:37:33;;;;;;;28.10;15.80;;;;;;;3.48;70.58;100029.23;103067;1304;111196;-74
2022/10/12 05:40:00;;;;;;;26.50;15.70;;;;;;;3.50;71.00;100028.84;103107;1298;97920;-74
2022/10/12 05:42:31;;;;;;;56.10;35.70;;;;;;;3.54;70.95;100031.88;102987;1300;107560;-74
2022/10/12 05:45:01;;;;;;;35.30;18.90;;;;;;;3.60;71.00;100030.15;103032;1299;98597;-74
2022/10/12 05:47:29;;;;;;;32.20;18.60;;;;;;;3.66;70.84;100033.84;103058;1304;97875;-74
2022/10/12 05:49:58;;;;;;;37.10;18.90;;;;;;;3.71;70.95;100031.39;103134;1298;111155;-75
2022/10/12 05:52:26;;;;;;;27.90;15.80;;;;;;;3.78;71.06;100031.55;103037;1299;95543;-74
2022/10/12 05:54:53;;;;;;;32.90;15.60;;;;;;;3.85;71.08;100030.66;103116;1305;107407;-73
2022/10/12 05:57:21;;;;;;;26.50;15.60;;;;;;;3.94;71.02;100034.95;103145;1298;97793;-74
2022/10/12 05:59:51;;;;;;;29.40;16.60;;;;;;;4.01;71.11;100036.48;103122;1305;96522;-75
2022/10/12 06:02:19;;;;;;;30.90;16.80;;;;;;;4.09;71.00;100040.64;103110;1303;111085;-77
2022/10/12 06:04:47;;;;;;;29.20;16.20;;;;;;;4.17;71.06;100036.37;103111;1304;97870;-75
2022/10/12 06:07:15;;;;;;;25.20;15.40;;;;;;;4.27;71.18;100036.42;103097;1296;107492;-75
2022/10/12 06:09:44;;;;;;;24.90;15.10;;;;;;;4.36;71.20;100037.71;103157;1296;97862;-78
2022/10/12 06:12:12;;;;;;;29.40;16.00;;;;;;;4.46;71.29;100040.55;103163;1303;97991;-76
2022/10/12 06:14:41;;;;;;;27.10;15.70;;;;;;;4.56;71.39;100038.48;103149;1304;111090;-75
2022/10/12 06:17:09;;;;;;;26.50;15.50;;;;;;;4.64;71.46;100043.14;103164;1300;97863;-77
2022/10/12 06:19:38;;;;;;;27.80;15.50;;;;;;;4.74;71.51;100041.94;103139;1303;107588;-75
2022/10/12 06:22:07;;;;;;;29.30;16.10;;;;;;;4.83;71.56;100042.71;103120;1297;98017;-76
2022/10/12 06:24:37;;;;;;;24.70;14.60;;;;;;;4.92;71.63;100042.73;103083;1303;97966;-75
2022/10/12 06:27:06;;;;;;;26.70;15.80;;;;;;;4.99;71.60;100046.56;103084;1297;111254;-75
2022/10/12 06:29:34;;;;;;;28.70;15.50;;;;;;;5.04;71.66;100045.00;103162;1304;95213;-74
2022/10/12 06:32:04;;;;;;;26.30;15.00;;;;;;;5.11;71.81;100045.62;103183;1298;107746;-75
2022/10/12 06:34:32;;;;;;;25.90;15.60;;;;;;;5.19;71.69;100043.95;103165;1296;99405;-74
2022/10/12 06:37:00;;;;;;;27.60;14.90;;;;;;;5.27;71.81;100044.38;103131;1303;96597;-75
2022/10/12 06:39:29;;;;;;;26.60;16.00;;;;;;;5.35;71.83;100047.08;103074;1304;111144;-75
2022/10/12 06:41:58;;;;;;;27.90;16.00;;;;;;;5.45;71.79;100050.45;103105;1290;95173;-75
2022/10/12 06:44:28;;;;;;;28.80;16.30;;;;;;;5.54;72.03;100052.92;102927;1304;107587;-75
2022/10/12 06:46:56;;;;;;;27.40;16.60;;;;;;;5.64;71.86;100049.93;103125;1304;96969;-74
2022/10/12 06:49:24;;;;;;;35.40;18.30;;;;;;;5.73;71.83;100048.71;103199;1304;95342;-75
2022/10/12 06:51:53;;;;;;;29.40;16.80;;;;;;;5.83;71.96;100043.09;103162;1297;110735;-75
2022/10/12 06:54:21;;;;;;;27.60;17.60;;;;;;;5.93;72.09;100043.94;103183;1299;95642;-74
2022/10/12 06:56:49;;;;;;;29.40;18.60;;;;;;;6.03;72.20;100041.29;103148;1296;107380;-75
2022/10/12 06:59:18;;;;;;;31.20;18.10;;;;;;;6.14;72.15;100047.56;102973;1292;98097;-75
2022/10/12 07:01:46;;;;;;;28.70;18.40;;;;;;;6.25;72.01;100045.21;103188;1298;95196;-75
2022/10/12 07:04:16;;;;;;;29.10;19.00;;;;;;;6.35;72.12;100046.77;103137;1296;111144;-76
2022/10/12 07:06:44;;;;;;;31.40;18.30;;;;;;;6.44;72.01;100049.93;103069;1300;97890;-75
2022/10/12 07:09:12;;;;;;;29.40;18.70;;;;;;;6.53;72.05;100052.03;103118;1304;107117;-74
2022/10/12 07:11:40;;;;;;;36.40;19.00;;;;;;;6.62;72.00;100051.88;102960;1299;97966;-75
2022/10/12 07:14:09;;;;;;;31.00;19.00;;;;;;;6.69;71.95;100049.98;103176;1297;97902;-75
2022/10/12 07:16:36;;;;;;;33.90;20.40;;;;;;;6.76;72.04;100048.64;103133;1298;111061;-76
2022/10/12 07:19:04;;;;;;;33.70;20.30;;;;;;;6.85;72.27;100054.45;103087;1303;97876;-76
2022/10/12 07:21:32;;;;;;;37.30;22.40;;;;;;;6.95;72.29;100053.16;103126;1297;107166;-74
2022/10/12 07:24:00;;;;;;;37.40;23.70;;;;;;;7.06;72.38;100051.11;103136;1304;97962;-74
2022/10/12 07:26:28;;;;;;;35.50;22.80;;;;;;;7.18;72.36;100047.79;103136;1298;97914;-75
2022/10/12 07:28:58;;;;;;;35.10;22.60;;;;;;;7.29;72.23;100051.36;103107;1297;110709;-75
2022/10/12 07:31:25;;;;;;;39.10;24.40;;;;;;;7.40;72.30;100046.81;103161;1303;98395;-74
2022/10/12 07:33:54;;;;;;;39.90;23.20;;;;;;;7.51;72.21;100048.12;103199;1297;107061;-75
2022/10/12 07:36:22;;;;;;;38.40;24.20;;;;;;;7.62;72.31;100051.53;103147;1304;97776;-75
2022/10/12 07:38:55;;;;;;;39.00;25.30;;;;;;;7.72;72.39;100047.17;103160;1304;97910;-74
2022/10/12 07:41:23;;;;;;;42.00;24.30;;;;;;;7.82;72.22;100043.22;103042;1299;110284;-74
2022/10/12 07:43:55;;;;;;;42.50;26.60;;;;;;;7.91;72.40;100043.00;103083;1303;97882;-73
2022/10/12 07:46:24;;;;;;;38.20;24.00;;;;;;;7.98;72.26;100041.25;102956;1293;107097;-75
2022/10/12 07:48:52;;;;;;;40.70;24.60;;;;;;;8.05;72.31;100043.20;103106;1297;98366;-74
2022/10/12 07:51:21;;;;;;;40.30;23.50;;;;;;;8.14;72.29;100043.35;103067;1297;95162;-74
2022/10/12 07:53:49;;;;;;;35.20;22.20;;;;;;;8.23;72.39;100041.16;103055;1308;111074;-75
2022/10/12 07:56:17;;;;;;;33.10;19.80;;;;;;;8.31;72.32;100035.80;103132;1300;97920;-75
2022/10/12 07:58:53;;;;;;;30.70;17.30;;;;;;;8.40;72.29;100029.92;103160;1297;107489;-75
2022/10/12 08:01:26;;;;;;;32.90;16.90;;;;;;;8.49;72.19;100034.45;102990;1307;97998;-75
2022/10/12 08:03:56;;;;;;;30.20;14.30;;;;;;;8.57;72.21;100032.86;103146;1296;97991;-75
2022/10/12 08:06:31;;;;;;;;;;;;;;;8.64;72.10;100031.27;102999;1293;111077;-75
2022/10/12 08:09:01;;;;;;;29.90;14.80;;;;;;;8.71;72.16;100030.58;103082;1304;97783;-74
2022/10/12 08:11:30;;;;;;;32.20;15.70;;;;;;;8.79;72.26;100026.81;103139;1302;107736;-75
2022/10/12 08:13:58;;;;;;;31.10;13.90;;;;;;;8.87;72.26;100026.42;103144;1298;95238;-75
2022/10/12 08:16:27;;;;;;;27.20;12.90;;;;;;;8.98;72.11;100030.99;102866;1300;98420;-75
2022/10/12 08:18:55;;;;;;;30.80;14.50;;;;;;;9.07;72.06;100029.83;103149;1311;111149;-75
2022/10/12 08:21:22;;;;;;;27.10;13.20;;;;;;;9.17;72.01;100025.60;103069;1301;97983;-75
2022/10/12 08:23:52;;;;;;;26.70;12.60;;;;;;;9.30;72.06;100032.23;103143;1295;107155;-75
2022/10/12 08:26:20;;;;;;;31.40;13.00;;;;;;;9.41;72.08;100030.90;103136;1298;95254;-75
2022/10/12 08:28:48;;;;;;;25.60;11.20;;;;;;;9.55;71.97;100027.20;103168;1299;95154;-76
2022/10/12 08:31:19;;;;;;;25.00;10.10;;;;;;;9.76;71.99;100023.97;103134;1297;110894;-76
2022/10/12 08:33:47;;;;;;;25.30;10.60;;;;;;;10.07;71.99;100024.58;103138;1297;95241;-76
2022/10/12 08:36:15;;;;;;;20.70;8.90;;;;;;;10.43;71.94;100016.95;103137;1298;107440;-75
2022/10/12 08:38:54;;;;;;;24.10;9.80;;;;;;;10.84;71.84;100015.52;103129;1290;97969;-76
2022/10/12 08:41:38;;;;;;;22.50;9.20;;;;;;;11.25;71.77;100015.17;103155;1297;98004;-75
2022/10/12 08:44:27;;;;;;;22.30;9.20;;;;;;;11.68;71.51;100009.24;103054;1298;111164;-75
2022/10/12 08:47:09;;;;;;;22.90;9.10;;;;;;;12.13;71.41;100007.12;103077;1300;96482;-74
2022/10/12 08:49:39;;;;;;;22.20;9.50;;;;;;;12.62;71.52;100003.43;103052;1298;107247;-76
2022/10/12 08:52:29;;;;;;;26.60;10.80;;;;;;;13.09;71.31;99999.08;103087;1297;96186;-75
2022/10/12 08:55:06;;;;;;;22.30;9.20;;;;;;;13.58;71.30;99992.34;103064;1297;97840;-75
2022/10/12 08:57:36;;;;;;;25.80;10.10;;;;;;;14.05;71.18;99991.91;103109;1297;110224;-75
2022/10/12 09:00:08;;;;;;;25.60;9.30;;;;;;;14.38;71.17;99993.01;103107;1304;97743;-75
2022/10/12 09:03:06;;;;;;;25.80;10.50;;;;;;;14.52;70.60;99993.05;103045;1297;107684;-75
2022/10/12 09:06:06;;;;;;;28.00;9.80;;;;;;;14.70;70.29;99992.71;103082;1297;97866;-74
2022/10/12 09:08:45;;;;;;;21.30;9.40;;;;;;;15.09;70.65;99992.97;103127;1304;98030;-74
2022/10/12 09:11:37;;;;;;;22.40;8.40;;;;;;;15.57;70.89;100000.52;103108;1297;111136;-74
2022/10/12 09:14:30;;;;;;;21.80;8.70;;;;;;;16.11;70.76;99996.27;103086;1299;98000;-75
2022/10/12 09:17:04;;;;;;;21.70;9.20;;;;;;;16.52;70.39;99994.67;103085;1298;107403;-74
2022/10/12 09:19:41;;;;;;;27.90;8.80;;;;;;;16.95;70.39;99993.70;102992;1307;97960;-74
2022/10/12 09:22:18;;;;;;;23.40;8.60;;;;;;;17.20;70.17;99989.80;103187;1299;95138;-74
2022/10/12 09:24:47;;;;;;;19.70;8.50;;;;;;;17.25;69.55;99993.70;103171;1307;111126;-74
2022/10/12 09:27:21;;;;;;;22.40;8.70;;;;;;;17.32;69.47;99996.46;103139;1304;98004;-73
2022/10/12 09:29:58;;;;;;;21.50;8.00;;;;;;;17.39;69.17;99996.06;103156;1288;107372;-76
2022/10/12 09:32:53;;;;;;;19.70;7.60;;;;;;;17.38;69.12;99997.62;103132;1304;98010;-74
2022/10/12 09:35:24;;;;;;;22.20;7.70;;;;;;;17.36;69.07;99999.92;103202;1297;97982;-76
2022/10/12 09:37:53;;;;;;;20.80;7.40;;;;;;;17.34;69.02;99996.89;103150;1300;111154;-75
2022/10/12 09:40:29;;;;;;;24.40;8.60;;;;;;;17.09;68.23;100002.78;102938;1297;96285;-76
2022/10/12 09:43:01;;;;;;;20.20;7.20;;;;;;;16.99;68.62;99999.32;103117;1296;107524;-75
2022/10/12 09:45:33;;;;;;;21.80;8.50;;;;;;;17.07;68.59;99998.77;103181;1303;97942;-75
2022/10/12 09:48:23;;;;;;;21.80;7.50;;;;;;;17.00;68.39;99997.58;103089;1296;95231;-75
2022/10/12 09:51:00;;;;;;;21.80;7.40;;;;;;;16.99;68.16;99999.83;103030;1296;110837;-74
2022/10/12 09:53:30;;;;;;;19.90;7.90;;;;;;;16.92;68.10;100002.16;102980;1296;95278;-75
2022/10/12 09:56:28;;;;;;;21.10;7.70;;;;;;;16.90;67.95;100000.02;103061;1305;107536;-74
2022/10/12 09:59:07;;;;;;;23.10;6.60;;;;;;;16.88;67.67;99999.84;103063;1293;96801;-75
2022/10/12 10:01:38;;;;;;;18.00;6.70;;;;;;;16.82;67.45;99998.69;103096;1302;97898;-75
2022/10/12 10:04:28;;;;;;;20.60;5.60;;;;;;;16.80;67.39;99998.88;103123;1300;111733;-76
2022/10/12 10:07:32;;;;;;;14.90;5.00;;;;;;;16.80;67.34;99999.42;103113;1301;95646;-76
2022/10/12 10:10:14;;;;;;;16.70;5.20;;;;;;;16.78;66.79;99999.58;103087;1303;107514;-75
2022/10/12 10:12:55;;;;;;;16.10;4.90;;;;;;;16.81;66.59;99998.45;103098;1300;97893;-75
2022/10/12 10:15:31;;;;;;;17.20;4.40;;;;;;;16.84;66.72;99998.69;103155;1300;97975;-75
2022/10/12 10:18:06;;;;;;;17.00;5.60;;;;;;;16.96;66.44;100000.77;103146;1305;110856;-76
2022/10/12 10:20:53;;;;;;;19.00;4.20;;;;;;;16.96;66.33;99998.83;103150;1299;97925;-74
2022/10/12 10:23:24;;;;;;;20.80;5.20;;;;;;;17.00;66.20;100000.48;103127;1305;107495;-74
2022/10/12 10:26:11;;;;;;;18.20;4.50;;;;;;;16.91;65.89;99995.45;103160;1305;96599;-74
2022/10/12 10:28:45;;;;;;;12.50;3.40;;;;;;;16.66;65.29;99996.80;103070;1290;95847;-75
2022/10/12 10:31:15;;;;;;;10.90;3.00;;;;;;;16.54;65.34;99998.32;103064;1299;110864;-74
2022/10/12 10:33:44;;;;;;;14.70;4.40;;;;;;;16.58;65.54;99990.89;103100;1298;97986;-74
2022/10/12 10:36:23;;;;;;;15.50;4.90;;;;;;;16.66;65.46;99988.23;103022;1307;107578;-74
2022/10/12 10:39:01;;;;;;;21.20;4.70;;;;;;;16.73;65.13;99988.15;103102;1305;97988;-75
2022/10/12 10:41:42;;;;;;;18.70;4.70;;;;;;;16.77;64.95;99983.55;103136;1300;97986;-74
2022/10/12 10:44:29;;;;;;;20.20;7.00;;;;;;;16.76;64.56;99981.95;103106;1299;111163;-74
2022/10/12 10:47:09;;;;;;;25.40;8.90;;;;;;;16.76;64.61;99978.02;103118;1300;97971;-72
2022/10/12 10:49:42;;;;;;;22.50;7.00;;;;;;;16.69;63.56;99974.71;103129;1303;107491;-74
2022/10/12 10:52:26;;;;;;;18.50;4.00;;;;;;;16.67;64.09;99971.85;103060;1304;97779;-75
2022/10/12 10:55:09;;;;;;;17.30;4.60;;;;;;;16.74;63.93;99966.76;103082;1304;98027;-74
2022/10/12 10:57:47;;;;;;;18.90;5.90;;;;;;;16.86;64.10;99968.09;103074;1298;111076;-73
2022/10/12 11:00:20;;;;;;;19.50;5.60;;;;;;;16.95;63.61;99966.80;103095;1297;99039;-74
2022/10/12 11:03:24;;;;;;;26.10;8.50;;;;;;;17.09;63.50;99958.14;102947;1290;107627;-74
2022/10/12 11:06:15;;;;;;;19.80;5.60;;;;;;;17.15;63.20;99956.95;103111;1301;98030;-76
2022/10/12 11:08:48;;;;;;;15.00;4.00;;;;;;;17.20;63.12;99958.24;103138;1299;97902;-75
2022/10/12 11:11:25;;;;;;;13.70;4.00;;;;;;;17.18;62.73;99954.48;103094;1303;111150;-74
2022/10/12 11:14:04;;;;;;;13.30;4.50;;;;;;;17.05;62.47;99949.18;103166;1296;97991;-74
2022/10/12 11:16:45;;;;;;;21.90;5.20;;;;;;;17.07;62.61;99948.11;103144;1304;107750;-74
2022/10/12 11:19:36;;;;;;;17.90;5.00;;;;;;;17.06;61.34;99947.13;103155;1293;97887;-73
2022/10/12 11:22:18;;;;;;;15.60;3.90;;;;;;;17.02;61.86;99946.02;102994;1304;99434;-73
2022/10/12 11:24:58;;;;;;;17.10;5.10;;;;;;;17.07;61.87;99943.57;103107;1303;111115;-74
2022/10/12 11:27:34;;;;;;;11.80;3.80;;;;;;;17.16;62.29;99941.73;103171;1305;97919;-74
2022/10/12 11:30:15;;;;;;;11.70;4.00;;;;;;;17.21;62.01;99946.14;103120;1297;107682;-73
2022/10/12 11:32:52;;;;;;;16.10;5.40;;;;;;;17.20;61.53;99943.52;103156;1299;97863;-74
2022/10/12 11:35:34;;;;;;;14.50;3.90;;;;;;;17.22;61.74;99941.46;103169;1296;97896;-74
2022/10/12 11:38:29;;;;;;;16.00;4.00;;;;;;;17.26;61.55;99940.67;103135;1296;111270;-75
2022/10/12 11:41:24;;;;;;;24.30;7.80;;;;;;;17.30;61.51;99944.54;103160;1296;97926;-74